Time;durP1;ratioP1;P1;durP2;ratioP2;P2;SDS_P1;SDS_P2;PMS_P1;PMS_P2;Temp;Humidity;BMP_temperature;BMP_pressure;BME280_temperature;BME280_humidity;BME280_pressure;Samples;Min_cycle;Max_cycle;Signal;HPM_P1;HPM_P2
2022/01/21 00:01:24;;;;;;;15.75;5.32;;;;;;;-1.80;80.49;94974.22;4992445;28;20050;-63
2022/01/21 00:03:51;;;;;;;25.95;9.85;;;;;;;-1.74;80.52;94978.34;4990979;28;20046;-62
2022/01/21 00:06:18;;;;;;;24.95;10.73;;;;;;;-1.72;80.61;94980.72;4992495;28;20042;-62
2022/01/21 00:08:47;;;;;;;13.03;5.13;;;;;;;-1.85;80.13;94982.41;5000392;28;20083;-62
2022/01/21 00:11:15;;;;;;;11.52;4.43;;;;;;;-1.73;79.72;94990.72;5030572;28;20552;-62
2022/01/21 00:13:43;;;;;;;15.32;5.68;;;;;;;-1.68;79.49;94973.63;5046280;28;20053;-62
2022/01/21 00:16:16;;;;;;;11.15;4.50;;;;;;;-1.74;80.04;94969.47;5031466;28;20042;-62
2022/01/21 00:19:25;;;;;;;9.85;4.50;;;;;;;-1.81;79.92;94969.94;5029792;28;20475;-62
2022/01/21 00:30:17;;;;;;;8.98;3.97;;;;;;;-1.69;79.84;94975.53;5031029;28;20486;-62
2022/01/21 00:32:48;;;;;;;8.68;4.18;;;;;;;-1.65;79.64;94973.78;5030477;28;20044;-62
2022/01/21 00:35:16;;;;;;;10.47;4.07;;;;;;;-1.93;80.01;94977.78;5031320;28;20072;-62
2022/01/21 00:37:44;;;;;;;11.68;4.00;;;;;;;-1.83;80.33;94980.22;5030555;28;20049;-62
2022/01/21 00:40:15;;;;;;;10.93;4.40;;;;;;;-1.69;80.00;94975.53;5013850;28;20049;-62
2022/01/21 00:45:16;;;;;;;11.05;4.28;;;;;;;-1.82;80.32;94981.78;5011259;28;20117;-63
2022/01/21 00:47:43;;;;;;;9.67;3.53;;;;;;;-1.89;79.71;94986.81;5010556;28;20049;-62
2022/01/21 00:50:11;;;;;;;10.40;4.10;;;;;;;-2.13;80.51;94974.53;5011386;28;20044;-63
2022/01/21 00:52:38;;;;;;;8.82;4.20;;;;;;;-1.86;80.43;94987.00;5011125;28;20479;-62
2022/01/21 00:55:07;;;;;;;10.90;4.45;;;;;;;-1.86;80.88;94978.91;4990585;28;20164;-62
2022/01/21 00:57:34;;;;;;;11.35;4.65;;;;;;;-1.97;80.22;94976.81;4991354;28;20053;-62
2022/01/21 01:00:01;;;;;;;10.17;3.80;;;;;;;-1.92;80.27;94971.31;4991237;28;20052;-62
2022/01/21 01:02:29;;;;;;;9.80;3.67;;;;;;;-1.97;79.04;94980.31;4991114;28;20045;-62
2022/01/21 01:04:56;;;;;;;8.90;3.83;;;;;;;-2.05;79.74;94979.16;4989695;28;20041;-62
2022/01/21 01:07:25;;;;;;;11.50;3.75;;;;;;;-1.95;80.05;94986.19;4991150;28;20064;-62
2022/01/21 01:09:54;;;;;;;8.85;4.00;;;;;;;-1.99;79.94;94979.00;5014076;28;20486;-62
2022/01/21 01:20:25;;;;;;;11.20;3.80;;;;;;;-1.94;79.04;94981.59;5030418;28;20033;-62
2022/01/21 01:23:07;;;;;;;9.50;3.85;;;;;;;-1.92;78.75;94984.75;5029865;28;20067;-62
2022/01/21 01:28:19;;;;;;;10.45;3.17;;;;;;;-1.99;78.88;95003.22;5029627;28;20819;-62
2022/01/21 01:30:46;;;;;;;9.07;4.35;;;;;;;-2.05;78.75;95005.28;5029442;28;20044;-62
2022/01/21 01:33:16;;;;;;;8.30;3.13;;;;;;;-2.10;78.29;95000.00;5028843;28;20041;-62
2022/01/21 01:35:43;;;;;;;8.60;3.63;;;;;;;-1.99;77.94;95000.53;5029555;28;20045;-62
2022/01/21 01:41:12;;;;;;;6.78;3.15;;;;;;;-2.03;77.62;95001.16;4991938;28;20247;-62
2022/01/21 01:51:58;;;;;;;10.17;3.77;;;;;;;-1.94;78.21;95009.28;5009585;28;20060;-63
2022/01/21 01:54:26;;;;;;;9.18;3.67;;;;;;;-1.95;77.74;95015.78;5010151;28;20068;-62
2022/01/21 01:56:55;;;;;;;7.65;3.28;;;;;;;-2.14;77.98;95005.22;5009806;28;20050;-62
2022/01/21 01:59:21;;;;;;;9.20;3.50;;;;;;;-2.10;78.03;95003.50;5010030;28;20068;-62
2022/01/21 02:01:54;;;;;;;10.55;3.55;;;;;;;-2.15;78.20;95003.63;5009084;28;20048;-62
2022/01/21 02:04:23;;;;;;;9.83;4.23;;;;;;;-2.07;78.55;95000.19;5009885;28;20376;-62
2022/01/21 02:06:50;;;;;;;14.30;6.53;;;;;;;-1.90;79.56;95002.16;5009152;28;20042;-62
2022/01/21 02:09:16;;;;;;;12.75;5.60;;;;;;;-1.84;77.98;95005.53;5008493;28;20045;-62
2022/01/21 02:11:43;;;;;;;8.60;3.22;;;;;;;-1.96;77.88;95005.31;5007931;28;20410;-62
2022/01/21 02:14:15;;;;;;;6.40;2.88;;;;;;;-2.07;77.34;95002.88;5009908;28;20395;-63
2022/01/21 02:22:28;;;;;;;7.40;3.00;;;;;;;-2.15;77.46;95005.50;5008712;28;20897;-62
2022/01/21 02:25:10;;;;;;;11.25;3.25;;;;;;;-2.15;77.55;95008.19;5007791;28;20050;-62
2022/01/21 02:27:37;;;;;;;9.02;3.20;;;;;;;-2.11;77.46;95011.84;5009283;28;20049;-62
2022/01/21 02:30:06;;;;;;;10.57;3.23;;;;;;;-2.15;77.05;94995.56;5009093;28;20117;-61
2022/01/21 02:32:32;;;;;;;8.50;2.92;;;;;;;-2.04;77.00;94998.78;5008978;28;20050;-60
2022/01/21 02:34:59;;;;;;;8.23;3.10;;;;;;;-2.10;76.49;95003.50;5007738;28;20050;-60
2022/01/21 02:37:26;;;;;;;7.78;2.60;;;;;;;-2.09;76.12;94999.72;5008005;28;20046;-60
2022/01/21 02:39:53;;;;;;;7.68;2.45;;;;;;;-2.26;75.95;94994.22;5007333;28;20115;-60
2022/01/21 02:42:19;;;;;;;7.07;2.83;;;;;;;-2.21;76.06;94992.22;5009504;28;20034;-60
2022/01/21 02:44:46;;;;;;;8.05;2.60;;;;;;;-2.16;75.83;94988.59;5008574;28;20487;-60
2022/01/21 02:47:13;;;;;;;9.32;2.70;;;;;;;-2.13;76.15;94985.28;5008899;28;20052;-60
2022/01/21 02:49:40;;;;;;;7.78;2.60;;;;;;;-2.13;75.92;94982.59;5008957;28;20052;-61
2022/01/21 02:52:07;;;;;;;6.80;2.88;;;;;;;-2.12;76.10;94980.69;5006979;28;20687;-60
2022/01/21 02:54:35;;;;;;;8.57;2.73;;;;;;;-2.13;76.11;94981.78;5008331;28;20064;-60
2022/01/21 02:57:05;;;;;;;7.90;2.60;;;;;;;-2.09;75.69;94983.56;5040058;28;20065;-60
2022/01/21 02:59:32;;;;;;;9.25;2.50;;;;;;;-2.15;75.54;94984.81;5008767;28;20045;-60
2022/01/21 03:02:00;;;;;;;7.78;2.67;;;;;;;-2.10;75.75;94992.72;5008174;28;20053;-61
2022/01/21 03:05:28;;;;;;;8.52;2.80;;;;;;;-2.06;76.17;94996.38;5009224;28;20115;-60
2022/01/21 03:07:24;;;;;;;6.33;2.80;;;;;;;-2.05;76.01;95000.69;5003107;28;20551;-60
2022/01/21 03:09:51;;;;;;;8.48;2.70;;;;;;;-2.00;75.87;94999.75;5003471;28;20054;-60
2022/01/21 03:12:17;;;;;;;7.13;2.58;;;;;;;-2.01;75.77;95009.72;4989527;28;20053;-60
2022/01/21 03:14:44;;;;;;;8.38;2.70;;;;;;;-2.08;75.24;95009.34;4988366;28;20502;-60
2022/01/21 03:17:12;;;;;;;7.97;3.10;;;;;;;-2.15;75.59;95008.19;5020226;28;20140;-60
2022/01/21 03:19:39;;;;;;;5.67;2.33;;;;;;;-1.99;75.04;95012.13;5028168;28;20044;-60
2022/01/21 03:22:06;;;;;;;9.75;2.80;;;;;;;-1.98;75.23;95012.91;5029883;28;20426;-61
2022/01/21 03:24:33;;;;;;;7.00;2.38;;;;;;;-1.93;75.39;95012.75;5008442;28;20072;-60
2022/01/21 03:27:00;;;;;;;9.82;3.80;;;;;;;-2.01;75.42;95009.72;5008215;28;20049;-60
2022/01/21 03:29:26;;;;;;;9.25;3.60;;;;;;;-1.92;75.50;95014.34;5008557;28;20490;-60
2022/01/21 03:31:53;;;;;;;8.00;2.93;;;;;;;-1.92;75.63;95017.81;5007905;28;20073;-60
2022/01/21 03:34:20;;;;;;;7.75;3.15;;;;;;;-1.87;75.44;95016.91;5008745;28;20064;-61
2022/01/21 03:36:47;;;;;;;8.93;2.60;;;;;;;-1.83;75.24;95017.88;5007815;28;20481;-60
2022/01/21 03:39:14;;;;;;;6.07;2.78;;;;;;;-1.88;75.35;95018.78;5008251;28;20064;-61
2022/01/21 03:41:40;;;;;;;7.68;3.30;;;;;;;-1.71;75.56;95023.47;5007842;28;20044;-59
2022/01/21 03:44:07;;;;;;;7.37;2.90;;;;;;;-1.73;75.11;95023.00;5008392;28;20046;-60
2022/01/21 03:46:34;;;;;;;7.70;3.15;;;;;;;-1.79;75.79;95013.47;5007904;28;20693;-61
2022/01/21 03:49:03;;;;;;;6.63;3.10;;;;;;;-1.84;75.46;95011.69;5039661;28;20042;-60
2022/01/21 03:51:30;;;;;;;7.90;2.80;;;;;;;-2.03;75.24;95016.53;5008599;28;20046;-60
2022/01/21 03:53:57;;;;;;;6.25;2.75;;;;;;;-2.04;75.32;95021.09;5007652;28;20060;-60
2022/01/21 03:56:24;;;;;;;7.53;2.90;;;;;;;-2.05;75.12;95016.03;5008609;28;20046;-60
2022/01/21 03:58:51;;;;;;;8.43;2.83;;;;;;;-2.01;74.89;95011.63;5007752;28;20038;-60
2022/01/21 04:01:18;;;;;;;7.57;2.80;;;;;;;-2.02;74.52;95008.13;5007035;28;20049;-60
2022/01/21 04:03:45;;;;;;;10.32;2.80;;;;;;;-1.96;74.69;95002.63;5007537;28;20034;-60
2022/01/21 04:06:12;;;;;;;8.93;3.20;;;;;;;-1.87;74.83;94998.06;5009626;28;20647;-60
2022/01/21 04:08:39;;;;;;;9.00;2.40;;;;;;;-1.90;74.56;94996.00;5010351;28;20045;-60
2022/01/21 04:11:06;;;;;;;8.43;2.75;;;;;;;-1.97;74.78;94999.16;5011128;28;21640;-60
2022/01/21 04:13:34;;;;;;;10.30;2.95;;;;;;;-2.00;74.21;94999.75;5012130;28;20038;-60
2022/01/21 04:16:02;;;;;;;10.05;2.72;;;;;;;-1.90;73.94;94998.69;5009825;28;20486;-60
2022/01/21 04:18:30;;;;;;;5.80;2.63;;;;;;;-1.83;73.60;94994.47;5010166;28;20518;-60
2022/01/21 04:20:57;;;;;;;14.87;4.67;;;;;;;-1.87;73.96;95000.75;5007213;28;20050;-62
2022/01/21 04:23:24;;;;;;;15.93;4.40;;;;;;;-1.96;74.23;94981.88;5011900;28;20503;-61
2022/01/21 04:25:52;;;;;;;9.23;3.17;;;;;;;-1.96;74.62;95003.41;5011159;28;20656;-60
2022/01/21 04:28:19;;;;;;;10.55;3.88;;;;;;;-2.03;74.90;95003.06;5011976;28;20080;-60
2022/01/21 04:30:46;;;;;;;7.90;3.17;;;;;;;-2.15;74.48;95010.88;5010889;28;20054;-60
2022/01/21 04:33:13;;;;;;;9.13;3.10;;;;;;;-2.05;74.88;95026.78;5011753;28;20410;-61
2022/01/21 04:35:40;;;;;;;7.20;2.65;;;;;;;-2.03;74.57;95020.00;5009148;28;20103;-59
2022/01/21 04:38:10;;;;;;;6.15;2.80;;;;;;;-2.04;75.12;95018.41;5011643;28;20189;-60
2022/01/21 04:41:01;;;;;;;10.07;3.60;;;;;;;-1.89;74.81;95024.47;5009554;28;20053;-60
2022/01/21 04:48:57;;;;;;;9.25;3.22;;;;;;;-2.26;76.11;95031.88;5010096;28;20050;-60
2022/01/21 04:51:29;;;;;;;9.25;2.80;;;;;;;-2.16;76.32;95026.25;5011099;28;20038;-61
2022/01/21 04:53:56;;;;;;;10.60;3.40;;;;;;;-2.02;76.67;95024.25;5042049;28;20055;-60
2022/01/21 04:56:23;;;;;;;11.52;3.92;;;;;;;-2.14;77.21;95031.31;5010947;28;20057;-61
2022/01/21 04:58:50;;;;;;;9.03;3.90;;;;;;;-2.11;77.90;95030.69;5008910;28;20042;-60
2022/01/21 05:01:17;;;;;;;11.70;4.00;;;;;;;-2.30;78.96;95018.25;5010873;28;20655;-60
2022/01/21 05:03:46;;;;;;;12.27;4.05;;;;;;;-2.17;78.51;95021.97;5010004;28;20064;-62
2022/01/21 05:06:13;;;;;;;17.73;4.95;;;;;;;-2.13;78.65;95031.00;5009353;28;20038;-60
2022/01/21 05:11:08;;;;;;;9.70;3.97;;;;;;;-2.05;77.83;95032.97;5009698;28;20387;-61
2022/01/21 05:13:41;;;;;;;10.52;3.90;;;;;;;-2.09;77.79;95032.00;5010715;28;20386;-61
2022/01/21 05:16:29;;;;;;;9.35;3.55;;;;;;;-2.05;77.43;95041.03;5010007;28;20406;-61
2022/01/21 05:18:57;;;;;;;15.30;4.93;;;;;;;-2.04;77.70;95047.97;5007281;28;20050;-64
2022/01/21 05:21:24;;;;;;;18.77;4.60;;;;;;;-2.18;77.90;95049.94;5010655;28;20170;-63
2022/01/21 05:23:50;;;;;;;16.07;4.90;;;;;;;-2.52;79.97;95056.66;5009864;28;20041;-62
2022/01/21 05:26:17;;;;;;;17.95;5.78;;;;;;;-2.38;80.57;95056.63;5010587;28;20054;-62
2022/01/21 05:28:44;;;;;;;13.52;5.40;;;;;;;-2.18;79.49;95054.53;5008764;28;20045;-61
2022/01/21 05:31:11;;;;;;;12.18;4.18;;;;;;;-2.32;78.69;95055.38;5010466;28;20072;-63
2022/01/21 05:33:38;;;;;;;13.73;3.80;;;;;;;-2.19;78.03;95053.75;5009952;28;20116;-63
2022/01/21 05:36:04;;;;;;;13.53;3.90;;;;;;;-2.42;78.30;95069.88;5009622;28;20038;-63
2022/01/21 05:38:31;;;;;;;13.93;4.18;;;;;;;-2.26;78.50;95066.81;5009184;28;20046;-63
2022/01/21 05:40:58;;;;;;;11.18;3.97;;;;;;;-2.24;78.31;95065.41;5009397;28;20422;-63
2022/01/21 05:43:25;;;;;;;10.55;3.83;;;;;;;-2.33;78.63;95055.72;5010395;28;20053;-62
2022/01/21 05:48:37;;;;;;;17.13;6.83;;;;;;;-2.52;80.97;95072.78;5010121;28;20518;-63
2022/01/21 05:51:04;;;;;;;16.23;7.20;;;;;;;-2.36;80.65;95070.53;5009435;28;20034;-61
2022/01/21 05:53:30;;;;;;;17.63;7.25;;;;;;;-2.37;80.73;95074.34;5010300;28;20048;-62
2022/01/21 05:56:01;;;;;;;13.15;6.25;;;;;;;-2.18;80.38;95073.38;5009530;28;20058;-61
2022/01/21 05:58:28;;;;;;;15.73;6.20;;;;;;;-2.25;80.29;95079.97;5010530;28;20038;-63
2022/01/21 06:00:55;;;;;;;25.70;11.00;;;;;;;-2.23;80.47;95087.75;5007346;28;20610;-61
2022/01/21 06:03:22;;;;;;;18.85;8.43;;;;;;;-2.33;79.95;95088.75;5009510;28;20042;-62
2022/01/21 06:05:50;;;;;;;14.18;5.72;;;;;;;-2.25;79.54;95089.94;5009308;28;20476;-61
2022/01/21 06:08:17;;;;;;;16.50;5.63;;;;;;;-2.35;79.72;95087.50;5008192;28;20487;-62
2022/01/21 06:10:44;;;;;;;12.13;4.90;;;;;;;-2.23;79.16;95090.44;5023855;28;20060;-61
2022/01/21 06:13:15;;;;;;;14.57;4.07;;;;;;;-2.33;79.11;95096.84;5009480;28;20064;-62
2022/01/21 06:15:43;;;;;;;15.45;7.00;;;;;;;-2.41;79.23;95097.56;5008814;28;20483;-61
2022/01/21 06:18:10;;;;;;;15.77;7.28;;;;;;;-2.34;79.11;95089.06;5008524;28;20057;-62
2022/01/21 06:20:37;;;;;;;12.65;4.85;;;;;;;-2.36;78.95;95099.31;5008190;28;20507;-63
2022/01/21 06:23:04;;;;;;;12.23;4.40;;;;;;;-2.36;78.79;95096.63;5009229;28;20491;-62
2022/01/21 06:25:31;;;;;;;13.47;4.23;;;;;;;-2.39;78.71;95106.13;5009765;28;20042;-63
2022/01/21 06:27:58;;;;;;;10.68;3.72;;;;;;;-2.34;78.49;95099.81;5008457;28;20048;-62
2022/01/21 06:30:25;;;;;;;12.63;5.35;;;;;;;-2.25;78.78;95100.69;5008909;28;20103;-62
2022/01/21 06:32:51;;;;;;;13.95;4.47;;;;;;;-2.29;78.61;95097.81;5007300;28;20037;-63
2022/01/21 06:35:18;;;;;;;11.93;3.78;;;;;;;-2.39;78.46;95103.44;5009299;28;20249;-63
2022/01/21 06:37:45;;;;;;;12.00;4.07;;;;;;;-2.37;78.77;95103.09;5008060;28;20050;-61
2022/01/21 06:40:12;;;;;;;11.32;4.32;;;;;;;-2.50;78.87;95104.75;5007790;28;20042;-62
2022/01/21 06:42:38;;;;;;;15.05;4.28;;;;;;;-2.58;79.68;95110.84;5024126;28;20053;-62
2022/01/21 06:45:05;;;;;;;9.82;4.30;;;;;;;-2.54;79.32;95117.97;5022963;28;20320;-62
2022/01/21 06:47:32;;;;;;;13.77;4.10;;;;;;;-2.54;78.94;95119.88;5009279;28;20531;-62
2022/01/21 06:49:59;;;;;;;10.77;3.43;;;;;;;-2.53;78.34;95122.28;5008267;28;20065;-62
2022/01/21 06:52:30;;;;;;;9.38;3.30;;;;;;;-2.59;78.40;95128.88;5009129;28;20060;-62
2022/01/21 06:54:58;;;;;;;8.60;3.50;;;;;;;-2.72;78.16;95133.16;5006798;28;20056;-62
2022/01/21 06:57:27;;;;;;;11.73;3.28;;;;;;;-2.85;77.95;95147.41;5008731;28;20049;-63
2022/01/21 06:59:53;;;;;;;9.93;3.72;;;;;;;-2.84;78.03;95149.00;5007761;28;20064;-62
2022/01/21 07:02:21;;;;;;;13.83;3.60;;;;;;;-2.97;77.80;95139.06;4998805;28;20046;-63
2022/01/21 07:04:49;;;;;;;10.63;4.20;;;;;;;-2.97;78.26;95131.78;5004289;28;20038;-63
2022/01/21 07:07:20;;;;;;;12.95;4.10;;;;;;;-2.95;78.54;95143.03;5008795;28;20048;-63
2022/01/21 07:09:47;;;;;;;9.68;3.55;;;;;;;-3.04;79.06;95152.88;5007891;28;20048;-62
2022/01/21 07:12:14;;;;;;;12.95;5.00;;;;;;;-3.12;78.82;95150.88;5008397;28;20678;-63
2022/01/21 07:14:40;;;;;;;11.43;4.57;;;;;;;-3.23;79.45;95145.72;5006775;28;20042;-61
2022/01/21 07:17:08;;;;;;;12.85;4.53;;;;;;;-3.35;80.01;95152.66;5008409;28;20042;-63
2022/01/21 07:19:34;;;;;;;13.38;5.70;;;;;;;-3.30;80.15;95149.88;5008721;28;20064;-63
2022/01/21 07:22:01;;;;;;;13.20;6.25;;;;;;;-3.34;80.51;95148.88;4999909;28;20046;-63
2022/01/21 07:24:28;;;;;;;13.65;5.20;;;;;;;-3.34;80.65;95155.06;4988239;28;20389;-63
2022/01/21 07:26:55;;;;;;;13.33;5.07;;;;;;;-3.31;80.34;95153.66;5005804;28;20042;-62
2022/01/21 07:29:22;;;;;;;13.00;4.75;;;;;;;-3.34;80.27;95160.44;5008452;28;20347;-63
2022/01/21 07:31:54;;;;;;;17.17;5.68;;;;;;;-3.48;82.01;95156.91;5007508;28;20045;-62
2022/01/21 07:34:22;;;;;;;18.23;6.13;;;;;;;-3.33;81.49;95158.53;5008564;28;20048;-62
2022/01/21 07:36:50;;;;;;;17.20;5.85;;;;;;;-3.25;81.76;95158.63;5007627;28;20038;-62
2022/01/21 07:39:16;;;;;;;15.73;5.77;;;;;;;-2.89;80.84;95154.47;5007486;28;20042;-62
2022/01/21 07:41:43;;;;;;;14.75;6.10;;;;;;;-2.63;79.93;95160.13;5008910;28;20091;-62
2022/01/21 07:44:12;;;;;;;14.63;6.68;;;;;;;-2.39;79.55;95154.50;5012115;28;20038;-62
2022/01/21 07:46:41;;;;;;;19.50;7.25;;;;;;;-2.28;78.43;95155.84;5011421;28;20042;-62
2022/01/21 07:49:09;;;;;;;16.85;7.40;;;;;;;-2.23;78.37;95158.44;5010102;28;21232;-62
2022/01/21 07:51:36;;;;;;;19.37;7.30;;;;;;;-2.14;77.96;95157.72;5012761;28;20528;-62
2022/01/21 07:54:04;;;;;;;17.23;6.72;;;;;;;-2.07;78.04;95148.13;5011985;28;20041;-62
2022/01/21 07:56:34;;;;;;;16.50;7.20;;;;;;;-2.03;76.99;95154.50;5012450;28;20034;-63
2022/01/21 07:59:04;;;;;;;16.73;6.70;;;;;;;-1.92;76.37;95163.09;5011838;28;20454;-63
2022/01/21 08:01:31;;;;;;;22.73;8.02;;;;;;;-2.24;77.36;95172.19;5008666;28;20386;-63
2022/01/21 08:03:59;;;;;;;16.60;6.77;;;;;;;-1.66;76.91;95170.56;5042714;28;20054;-62
2022/01/21 08:06:26;;;;;;;18.52;7.32;;;;;;;0.68;69.97;95168.69;5012451;28;20390;-63
2022/01/21 08:08:54;;;;;;;13.77;6.57;;;;;;;2.68;65.66;95170.19;5011487;28;20080;-63
2022/01/21 08:11:21;;;;;;;15.15;7.00;;;;;;;3.70;59.38;95167.72;5011848;28;20053;-63
2022/01/21 08:13:48;;;;;;;16.90;8.00;;;;;;;6.02;53.14;95154.41;5010056;28;20045;-63
2022/01/21 08:16:15;;;;;;;14.87;6.70;;;;;;;5.68;52.91;95160.25;5011988;28;20048;-63
2022/01/21 08:18:42;;;;;;;19.92;9.70;;;;;;;6.55;50.38;95154.75;5011842;28;20063;-63
2022/01/21 08:21:10;;;;;;;23.90;12.27;;;;;;;6.11;49.93;95157.72;5010405;28;20396;-63
2022/01/21 08:23:37;;;;;;;22.55;11.75;;;;;;;7.99;46.24;95142.41;5012079;28;20044;-63
2022/01/21 08:26:04;;;;;;;20.48;10.70;;;;;;;7.59;44.73;95148.44;5009944;28;20038;-63
2022/01/21 08:28:30;;;;;;;18.80;8.33;;;;;;;8.50;43.49;95141.13;5010576;28;20046;-62
2022/01/21 08:30:57;;;;;;;17.15;8.32;;;;;;;8.56;40.83;95147.84;5011177;28;20046;-61
2022/01/21 08:33:24;;;;;;;20.85;10.15;;;;;;;3.54;53.39;95159.47;5011406;28;20045;-62
2022/01/21 08:35:51;;;;;;;19.38;9.60;;;;;;;5.74;51.25;95149.88;5025914;28;20054;-61
2022/01/21 08:38:20;;;;;;;17.20;8.43;;;;;;;8.11;44.76;95151.53;5043470;28;20046;-61
2022/01/21 08:40:48;;;;;;;14.30;7.70;;;;;;;9.24;40.98;95145.09;5011362;28;20390;-61
2022/01/21 08:43:15;;;;;;;13.43;6.75;;;;;;;10.54;39.11;95142.13;5011741;28;20037;-61
2022/01/21 08:45:42;;;;;;;14.70;7.63;;;;;;;10.11;38.74;95146.56;5011036;28;20048;-61
2022/01/21 08:48:10;;;;;;;12.30;6.70;;;;;;;8.40;43.13;95144.50;5011248;28;20489;-61
2022/01/21 08:50:37;;;;;;;11.15;6.65;;;;;;;9.87;38.70;95140.50;5042472;28;20377;-61
2022/01/21 08:53:35;;;;;;;13.50;7.20;;;;;;;10.20;38.70;95152.47;5010082;28;20038;-61
2022/01/21 08:55:54;;;;;;;15.38;6.45;;;;;;;9.05;40.05;95126.09;5010499;28;20056;-61
2022/01/21 08:58:21;;;;;;;12.15;6.43;;;;;;;9.96;37.64;95140.97;5011138;28;20046;-61
2022/01/21 09:00:48;;;;;;;10.80;6.18;;;;;;;10.13;37.50;95155.19;5009360;28;20075;-63
2022/01/21 09:03:15;;;;;;;11.70;5.82;;;;;;;11.95;34.34;95152.25;5011120;28;20042;-63
2022/01/21 09:05:48;;;;;;;15.53;8.43;;;;;;;12.48;32.83;95158.06;5009521;28;20046;-63
2022/01/21 09:08:15;;;;;;;15.45;7.85;;;;;;;14.03;30.86;95146.97;5011029;28;20354;-64
2022/01/21 09:10:42;;;;;;;12.95;6.70;;;;;;;14.08;30.39;95133.50;5010725;28;20034;-62
2022/01/21 09:13:09;;;;;;;11.48;5.10;;;;;;;11.89;31.12;95131.81;5010853;28;20048;-61
2022/01/21 09:15:37;;;;;;;9.40;4.35;;;;;;;12.41;31.02;95134.06;5010668;28;20052;-62
2022/01/21 09:18:05;;;;;;;9.80;5.10;;;;;;;13.40;30.15;95136.81;5008903;28;20044;-62
2022/01/21 09:20:33;;;;;;;11.07;4.60;;;;;;;14.13;29.62;95138.59;5010756;28;20048;-61
2022/01/21 09:23:01;;;;;;;7.35;3.35;;;;;;;9.27;34.75;95157.22;5009706;28;20057;-61
2022/01/21 09:25:27;;;;;;;8.65;4.10;;;;;;;11.08;33.59;95174.47;5010500;28;20052;-64
2022/01/21 09:27:54;;;;;;;8.25;3.80;;;;;;;11.82;32.10;95167.53;5009710;28;20060;-63
2022/01/21 09:30:21;;;;;;;8.70;4.50;;;;;;;12.34;31.10;95167.13;5010761;28;20038;-62
2022/01/21 09:32:48;;;;;;;7.88;3.35;;;;;;;13.99;27.41;95158.03;5010179;28;20538;-61
2022/01/21 09:35:15;;;;;;;7.55;3.30;;;;;;;14.21;26.76;95166.13;5010347;28;20046;-64
2022/01/21 09:37:42;;;;;;;7.03;2.90;;;;;;;11.80;29.87;95173.41;5025057;28;20050;-63
2022/01/21 09:40:30;;;;;;;11.77;4.95;;;;;;;10.45;32.78;95182.84;5010476;28;20370;-62
2022/01/21 09:42:58;;;;;;;8.90;3.00;;;;;;;10.06;34.59;95182.56;5009312;28;20069;-62
2022/01/21 09:45:27;;;;;;;7.13;3.13;;;;;;;11.19;32.60;95184.34;5010179;28;20042;-62
2022/01/21 09:47:55;;;;;;;13.15;6.78;;;;;;;11.52;32.66;95176.94;5009729;28;20068;-62
2022/01/21 09:50:22;;;;;;;9.85;5.10;;;;;;;11.90;32.26;95188.38;5009863;28;20046;-62
2022/01/21 09:52:51;;;;;;;8.73;3.80;;;;;;;12.73;30.91;95194.53;5009733;28;20042;-62
2022/01/21 09:55:22;;;;;;;9.17;3.50;;;;;;;12.42;29.68;95192.69;5008692;28;20042;-63
2022/01/21 09:57:54;;;;;;;8.20;3.20;;;;;;;14.50;28.14;95186.75;5009190;28;20403;-62
2022/01/21 10:00:24;;;;;;;7.00;3.63;;;;;;;13.02;30.04;95199.97;5010081;28;20038;-62
2022/01/21 10:02:52;;;;;;;8.25;4.40;;;;;;;14.90;28.50;95200.19;5009312;28;20048;-62
2022/01/21 10:05:19;;;;;;;10.27;4.80;;;;;;;14.66;27.29;95207.53;5009397;28;20190;-62
2022/01/21 10:07:48;;;;;;;9.47;4.70;;;;;;;12.87;29.98;95210.25;5009270;28;20164;-62
2022/01/21 10:10:16;;;;;;;8.63;3.38;;;;;;;12.37;30.04;95208.41;5009446;28;20046;-62
2022/01/21 10:12:50;;;;;;;9.45;4.40;;;;;;;7.76;37.02;95216.22;5009208;28;20107;-61
2022/01/21 10:15:17;;;;;;;10.75;4.80;;;;;;;8.10;37.52;95216.34;5009333;28;20050;-62
2022/01/21 10:18:10;;;;;;;8.30;3.08;;;;;;;6.79;39.98;95225.38;5009178;28;20076;-62
2022/01/21 10:20:57;;;;;;;8.17;3.73;;;;;;;7.13;39.53;95227.59;5009413;28;20060;-61
2022/01/21 10:23:25;;;;;;;8.27;4.13;;;;;;;6.25;40.77;95222.66;5008724;28;20072;-62
2022/01/21 10:26:04;;;;;;;8.43;3.35;;;;;;;5.18;43.78;95219.69;5007795;28;20050;-61
2022/01/21 10:28:33;;;;;;;11.20;3.60;;;;;;;3.62;48.05;95227.53;5009453;28;20041;-61
2022/01/21 10:31:15;;;;;;;12.57;3.58;;;;;;;3.73;48.73;95225.97;5008921;28;20044;-63
2022/01/21 10:33:46;;;;;;;12.10;4.70;;;;;;;3.83;49.01;95230.16;5009116;28;20425;-63
2022/01/21 10:36:24;;;;;;;11.18;4.68;;;;;;;4.98;45.89;95213.31;5009297;28;20050;-63
2022/01/21 10:38:54;;;;;;;9.70;4.53;;;;;;;5.60;44.67;95216.47;5009267;28;20400;-63
2022/01/21 10:41:21;;;;;;;9.70;3.50;;;;;;;5.25;44.66;95218.28;5009374;28;20061;-63
2022/01/21 10:44:12;;;;;;;11.35;3.50;;;;;;;3.39;49.33;95228.78;5007409;28;20153;-64
2022/01/21 10:46:46;;;;;;;8.77;3.40;;;;;;;3.95;48.16;95219.28;4988651;28;20058;-63
2022/01/21 10:49:15;;;;;;;10.80;3.60;;;;;;;3.34;49.33;95228.19;4988279;28;20729;-63
2022/01/21 10:51:51;;;;;;;6.47;3.00;;;;;;;4.49;47.50;95220.91;4987887;28;20046;-62
2022/01/21 10:54:18;;;;;;;8.80;3.50;;;;;;;4.94;46.00;95212.44;4989699;28;20030;-63
2022/01/21 10:57:08;;;;;;;6.28;3.00;;;;;;;4.71;45.71;95217.66;4989215;28;20051;-63
2022/01/21 10:59:50;;;;;;;12.03;4.77;;;;;;;4.73;46.47;95217.31;4989894;28;20429;-63
2022/01/21 11:02:45;;;;;;;5.72;2.50;;;;;;;3.79;49.08;95221.91;4988330;28;20050;-63
2022/01/21 11:05:25;;;;;;;8.18;2.17;;;;;;;3.65;49.01;95222.25;4988156;28;21607;-63
2022/01/21 11:08:04;;;;;;;7.75;2.40;;;;;;;3.40;48.79;95224.94;4988685;28;20053;-63
2022/01/21 11:10:37;;;;;;;8.48;2.55;;;;;;;4.03;48.18;95223.03;5007702;28;20049;-63
2022/01/21 11:13:10;;;;;;;8.73;2.97;;;;;;;2.18;52.87;95215.25;5008169;28;20052;-64
2022/01/21 11:15:42;;;;;;;8.00;2.80;;;;;;;2.73;52.19;95223.41;5008304;28;20509;-63
2022/01/21 11:18:13;;;;;;;10.60;2.75;;;;;;;2.68;51.71;95210.84;5007747;28;20645;-63
2022/01/21 11:20:43;;;;;;;8.95;2.58;;;;;;;1.64;53.84;95208.91;5008949;28;20049;-63
2022/01/21 11:23:10;;;;;;;9.40;3.40;;;;;;;2.02;53.90;95208.81;5007854;28;20046;-62
2022/01/21 11:25:50;;;;;;;9.13;2.87;;;;;;;2.60;52.62;95206.31;5009060;28;20052;-63
2022/01/21 11:28:25;;;;;;;8.98;3.30;;;;;;;2.73;52.05;95207.91;5022827;28;20052;-63
2022/01/21 11:30:53;;;;;;;10.93;3.70;;;;;;;1.90;52.79;95204.13;5008448;28;20080;-63
2022/01/21 11:33:22;;;;;;;10.70;3.60;;;;;;;1.59;55.52;95207.97;5008596;28;20034;-63
2022/01/21 11:35:50;;;;;;;7.63;2.35;;;;;;;4.02;49.48;95202.41;5008526;28;20048;-62
2022/01/21 11:38:19;;;;;;;7.43;2.70;;;;;;;5.00;45.60;95192.00;5008665;28;20384;-63
2022/01/21 11:40:48;;;;;;;8.38;2.95;;;;;;;3.15;50.03;95209.75;5008272;28;20553;-63
2022/01/21 11:43:16;;;;;;;7.85;2.65;;;;;;;3.88;47.38;95200.84;5000349;28;20088;-63
2022/01/21 11:46:04;;;;;;;9.88;2.60;;;;;;;2.07;51.37;95200.50;4998050;28;20046;-63
2022/01/21 11:51:27;;;;;;;7.57;2.60;;;;;;;2.43;52.23;95203.75;5007470;28;21672;-63
2022/01/21 11:54:00;;;;;;;10.32;2.67;;;;;;;4.34;48.20;95197.94;5008050;28;20087;-63
2022/01/21 11:56:43;;;;;;;14.70;4.60;;;;;;;4.99;46.25;95201.31;5008276;28;20042;-63
2022/01/21 12:02:16;;;;;;;12.13;2.70;;;;;;;2.89;49.69;95193.75;5007883;28;20052;-63
2022/01/21 12:04:46;;;;;;;8.37;2.20;;;;;;;2.77;51.08;95195.28;5007964;28;20385;-62
2022/01/21 12:07:35;;;;;;;5.28;2.08;;;;;;;2.46;49.45;95192.25;5008080;28;20041;-63
2022/01/21 12:10:06;;;;;;;8.20;1.90;;;;;;;3.08;48.88;95191.31;5007346;28;20038;-63
2022/01/21 12:12:50;;;;;;;9.13;2.08;;;;;;;6.95;40.99;95175.41;5008461;28;20040;-63
2022/01/21 12:18:33;;;;;;;8.50;2.03;;;;;;;4.60;43.21;95178.47;5007140;28;20317;-63
2022/01/21 12:21:33;;;;;;;6.63;2.03;;;;;;;7.69;37.96;95175.13;5007886;28;20053;-65
2022/01/21 12:24:00;;;;;;;6.90;2.00;;;;;;;5.89;41.11;95179.00;5007816;28;20038;-61
2022/01/21 12:26:29;;;;;;;6.35;2.10;;;;;;;7.79;37.32;95174.50;5008226;28;20034;-61
2022/01/21 12:28:57;;;;;;;9.35;2.95;;;;;;;4.15;44.22;95177.59;5011450;28;20079;-62
2022/01/21 12:31:56;;;;;;;8.77;2.67;;;;;;;3.29;46.60;95180.38;5011733;28;20042;-61
2022/01/21 12:34:23;;;;;;;9.40;2.13;;;;;;;1.08;52.18;95180.00;5010097;28;22004;-61
2022/01/21 12:36:52;;;;;;;6.55;2.17;;;;;;;0.77;53.45;95189.19;5011195;28;20052;-62
2022/01/21 12:39:42;;;;;;;7.20;2.05;;;;;;;1.16;52.73;95184.59;5011648;28;20042;-61
2022/01/21 12:42:20;;;;;;;13.82;2.13;;;;;;;2.28;50.12;95194.31;5008135;28;20446;-61